Time;durP1;ratioP1;P1;durP2;ratioP2;P2;SDS_P1;SDS_P2;PMS_P1;PMS_P2;Temp;Humidity;BMP_temperature;BMP_pressure;BME280_temperature;BME280_humidity;BME280_pressure;Samples;Min_cycle;Max_cycle;Signal;HPM_P1;HPM_P2
2021/10/31 00:01:09;;;;;;;25.93;23.80;;;;;;;;;;5027942;28;20415;-96
2021/10/31 00:03:37;;;;;;;24.83;23.13;;;;;;;;;;5026402;28;20456;-96
2021/10/31 00:06:05;;;;;;;24.97;23.27;;;;;;;;;;5028061;28;20419;-96
2021/10/31 00:08:34;;;;;;;26.20;24.50;;;;;;;;;;5027516;28;20440;-96
2021/10/31 00:11:02;;;;;;;24.97;23.47;;;;;;;;;;5030037;28;20434;-96
2021/10/31 00:13:30;;;;;;;23.90;22.00;;;;;;;;;;5030949;28;20459;-96
2021/10/31 00:15:57;;;;;;;25.20;23.60;;;;;;;;;;5029816;28;20460;-96
2021/10/31 00:18:25;;;;;;;25.33;23.63;;;;;;;;;;5026386;28;20420;-96
2021/10/31 00:20:52;;;;;;;25.47;23.77;;;;;;;;;;5028784;28;20811;-96
2021/10/31 00:23:20;;;;;;;25.20;23.60;;;;;;;;;;5026083;28;20933;-96
2021/10/31 00:25:49;;;;;;;25.13;23.40;;;;;;;;;;5026127;28;20407;-96
2021/10/31 00:28:16;;;;;;;25.63;23.87;;;;;;;;;;5026001;28;20411;-96
2021/10/31 00:30:44;;;;;;;24.90;23.30;;;;;;;;;;5027769;28;20403;-96
2021/10/31 00:33:11;;;;;;;24.13;22.53;;;;;;;;;;5028821;28;20797;-96
2021/10/31 00:35:39;;;;;;;24.70;23.10;;;;;;;;;;5027692;28;20413;-88
2021/10/31 00:38:07;;;;;;;25.17;23.63;;;;;;;;;;5033659;28;20411;-96
2021/10/31 00:40:34;;;;;;;25.87;24.10;;;;;;;;;;5032221;28;20428;-97
2021/10/31 00:43:04;;;;;;;25.40;23.60;;;;;;;;;;5012491;28;20420;-97
2021/10/31 02:15:25;;;;;;;26.90;25.10;;;;;;;;;;5053499;28;20491;-96
2021/10/31 02:17:55;;;;;;;119.57;109.77;;;;;;;;;;5055162;28;20428;-96
2021/10/31 02:20:24;;;;;;;26.87;24.87;;;;;;;;;;5055868;28;20442;-96
2021/10/31 02:22:53;;;;;;;25.87;24.17;;;;;;;;;;5052033;28;20419;-96
2021/10/31 02:25:21;;;;;;;26.13;24.40;;;;;;;;;;5055312;28;20414;-96
2021/10/31 02:27:49;;;;;;;26.10;24.23;;;;;;;;;;5056099;28;20398;-96
2021/10/31 02:30:17;;;;;;;26.83;24.90;;;;;;;;;;5055775;28;20435;-96
2021/10/31 02:32:45;;;;;;;26.90;24.90;;;;;;;;;;5053288;28;20458;-96
2021/10/31 02:35:13;;;;;;;26.57;24.57;;;;;;;;;;5053408;28;20413;-96
2021/10/31 02:37:41;;;;;;;25.00;23.10;;;;;;;;;;5039280;28;20433;-96
2021/10/31 02:40:11;;;;;;;26.10;24.40;;;;;;;;;;5056330;28;20422;-96
2021/10/31 02:42:39;;;;;;;25.10;23.40;;;;;;;;;;5055267;28;20451;-96
2021/10/31 02:45:07;;;;;;;26.63;24.67;;;;;;;;;;5053030;28;20914;-96
2021/10/31 02:47:38;;;;;;;26.37;24.40;;;;;;;;;;5054040;28;20434;-96
2021/10/31 02:50:06;;;;;;;25.77;24.07;;;;;;;;;;5052446;28;20430;-96
2021/10/31 02:52:41;;;;;;;25.20;23.30;;;;;;;;;;5037375;28;20453;-96
2021/10/31 02:55:12;;;;;;;25.00;23.07;;;;;;;;;;5051886;28;20448;-96
2021/10/31 02:57:43;;;;;;;113.43;94.93;;;;;;;;;;5053610;28;20416;-96
2021/10/31 03:00:13;;;;;;;27.07;24.53;;;;;;;;;;5056122;28;20414;-96
2021/10/31 03:02:41;;;;;;;25.90;24.07;;;;;;;;;;5056364;28;20822;-96
2021/10/31 03:05:09;;;;;;;24.90;23.30;;;;;;;;;;5054111;28;20451;-96
2021/10/31 03:07:37;;;;;;;26.77;24.90;;;;;;;;;;5053129;28;20459;-96
2021/10/31 03:10:05;;;;;;;25.23;23.50;;;;;;;;;;5052686;28;20476;-96
2021/10/31 03:12:34;;;;;;;27.17;25.00;;;;;;;;;;5054770;28;20482;-96
2021/10/31 03:15:02;;;;;;;24.80;23.10;;;;;;;;;;5052927;28;20494;-96
2021/10/31 03:17:29;;;;;;;26.40;23.90;;;;;;;;;;5054166;28;20794;-96
2021/10/31 03:19:57;;;;;;;24.73;23.20;;;;;;;;;;5052535;28;20421;-96
2021/10/31 03:22:24;;;;;;;24.67;23.00;;;;;;;;;;5052152;28;20463;-96
2021/10/31 03:24:51;;;;;;;25.67;23.97;;;;;;;;;;5051643;28;20443;-96
2021/10/31 03:27:19;;;;;;;25.03;23.33;;;;;;;;;;5017311;28;20422;-96
2021/10/31 03:29:48;;;;;;;25.00;23.40;;;;;;;;;;5051508;28;20446;-96
2021/10/31 03:32:16;;;;;;;25.60;23.80;;;;;;;;;;5051274;28;20434;-96
2021/10/31 03:34:44;;;;;;;25.33;23.70;;;;;;;;;;5050481;28;20443;-96
2021/10/31 03:37:11;;;;;;;27.00;25.10;;;;;;;;;;5053812;28;20432;-96
2021/10/31 03:39:39;;;;;;;27.40;25.50;;;;;;;;;;5035985;28;20836;-96
2021/10/31 03:42:07;;;;;;;27.90;25.90;;;;;;;;;;5052591;28;20442;-96
2021/10/31 03:44:37;;;;;;;27.40;25.40;;;;;;;;;;5050591;28;20432;-96
2021/10/31 03:47:09;;;;;;;28.53;26.23;;;;;;;;;;5048443;28;20402;-96
2021/10/31 03:49:37;;;;;;;136.43;77.67;;;;;;;;;;5048212;28;20467;-96
2021/10/31 03:52:05;;;;;;;27.10;25.10;;;;;;;;;;5048967;28;20430;-96
2021/10/31 03:54:32;;;;;;;26.30;24.20;;;;;;;;;;5032330;28;20508;-96
2021/10/31 03:57:00;;;;;;;25.87;24.17;;;;;;;;;;5050184;28;20468;-96
2021/10/31 03:59:27;;;;;;;26.60;24.30;;;;;;;;;;5033113;28;20449;-96
2021/10/31 04:01:55;;;;;;;27.17;25.23;;;;;;;;;;5049680;28;20446;-96
2021/10/31 04:04:24;;;;;;;26.77;24.93;;;;;;;;;;5031645;28;20417;-96
2021/10/31 04:06:51;;;;;;;28.40;26.20;;;;;;;;;;5031793;28;20422;-96
2021/10/31 04:09:20;;;;;;;26.30;24.60;;;;;;;;;;5047596;28;20440;-96
2021/10/31 04:11:48;;;;;;;26.43;24.73;;;;;;;;;;5028524;28;20492;-96
2021/10/31 04:14:15;;;;;;;25.90;23.90;;;;;;;;;;5033236;28;20446;-96
2021/10/31 04:16:43;;;;;;;26.53;24.50;;;;;;;;;;5036151;28;20442;-96
2021/10/31 04:19:11;;;;;;;25.60;23.60;;;;;;;;;;5049305;28;20410;-96
2021/10/31 04:21:40;;;;;;;27.80;25.60;;;;;;;;;;5049238;28;20446;-96
2021/10/31 04:24:07;;;;;;;30.60;28.20;;;;;;;;;;5047761;28;20450;-96
2021/10/31 04:26:35;;;;;;;26.70;24.90;;;;;;;;;;5048125;28;20418;-96
2021/10/31 04:29:03;;;;;;;28.00;26.10;;;;;;;;;;5030384;28;20442;-96
2021/10/31 04:31:30;;;;;;;29.33;26.97;;;;;;;;;;5014613;28;20426;-96
2021/10/31 04:33:58;;;;;;;27.43;25.60;;;;;;;;;;5053517;28;20963;-96
2021/10/31 04:36:25;;;;;;;26.40;24.70;;;;;;;;;;5049122;28;20462;-96
2021/10/31 04:38:56;;;;;;;27.17;25.27;;;;;;;;;;5048549;28;20829;-96
2021/10/31 04:41:28;;;;;;;27.80;25.50;;;;;;;;;;5048720;28;20422;-96
2021/10/31 04:43:55;;;;;;;25.30;23.70;;;;;;;;;;5032120;28;20445;-96
2021/10/31 04:46:23;;;;;;;26.73;24.50;;;;;;;;;;5048962;28;20428;-96
2021/10/31 04:48:50;;;;;;;25.77;23.77;;;;;;;;;;5046114;28;20501;-96
2021/10/31 04:51:18;;;;;;;23.97;22.43;;;;;;;;;;5042270;28;20432;-96
2021/10/31 04:53:45;;;;;;;25.43;23.80;;;;;;;;;;5021761;28;20461;-96
2021/10/31 04:56:14;;;;;;;25.90;23.93;;;;;;;;;;5041441;28;20474;-96
2021/10/31 04:58:42;;;;;;;26.37;24.50;;;;;;;;;;5040969;28;20410;-96
2021/10/31 05:01:10;;;;;;;24.73;22.93;;;;;;;;;;5041966;28;20429;-96
2021/10/31 05:03:37;;;;;;;24.27;22.77;;;;;;;;;;5042092;28;20410;-96
2021/10/31 05:06:05;;;;;;;25.30;23.63;;;;;;;;;;5042510;28;20447;-96
2021/10/31 05:08:32;;;;;;;25.73;24.07;;;;;;;;;;5041457;28;20451;-96
2021/10/31 05:11:00;;;;;;;36.97;32.73;;;;;;;;;;5022449;28;20779;-96
2021/10/31 05:13:29;;;;;;;34.53;30.90;;;;;;;;;;5040602;28;20475;-96
2021/10/31 05:15:57;;;;;;;29.00;26.53;;;;;;;;;;5040962;28;20876;-96
2021/10/31 05:18:24;;;;;;;26.07;24.27;;;;;;;;;;5041632;28;20419;-96
2021/10/31 05:20:52;;;;;;;25.40;23.70;;;;;;;;;;5025622;28;20429;-96
2021/10/31 05:23:19;;;;;;;27.03;25.13;;;;;;;;;;5041960;28;20442;-96
2021/10/31 05:25:47;;;;;;;24.93;23.13;;;;;;;;;;5041847;28;20754;-96
2021/10/31 05:28:14;;;;;;;26.63;24.73;;;;;;;;;;5041907;28;20470;-96
2021/10/31 05:30:43;;;;;;;27.30;25.17;;;;;;;;;;5040765;28;20451;-96
2021/10/31 05:33:11;;;;;;;27.47;25.30;;;;;;;;;;5040221;28;20450;-96
2021/10/31 05:35:38;;;;;;;28.13;26.00;;;;;;;;;;5039637;28;20781;-96
2021/10/31 05:38:06;;;;;;;26.67;24.83;;;;;;;;;;5039990;28;20453;-96
2021/10/31 05:40:34;;;;;;;28.70;26.40;;;;;;;;;;5040270;28;20492;-96
2021/10/31 05:43:01;;;;;;;25.70;23.90;;;;;;;;;;5041618;28;20442;-96
2021/10/31 05:45:29;;;;;;;27.10;25.07;;;;;;;;;;5023109;28;20431;-96
2021/10/31 05:47:58;;;;;;;25.70;23.90;;;;;;;;;;5039978;28;20530;-96
2021/10/31 05:50:26;;;;;;;25.13;23.30;;;;;;;;;;5021299;28;20418;-96
2021/10/31 05:52:53;;;;;;;24.23;22.63;;;;;;;;;;5039328;28;20459;-96
2021/10/31 05:55:21;;;;;;;25.10;23.30;;;;;;;;;;5042723;28;20476;-96
2021/10/31 05:57:49;;;;;;;25.97;24.17;;;;;;;;;;5042960;28;20443;-96
2021/10/31 06:00:17;;;;;;;26.40;24.50;;;;;;;;;;5042707;28;20448;-96
2021/10/31 06:02:45;;;;;;;26.27;24.47;;;;;;;;;;5042612;28;20440;-96
2021/10/31 06:05:15;;;;;;;25.60;23.77;;;;;;;;;;5024970;28;20458;-96
2021/10/31 06:07:43;;;;;;;25.83;23.63;;;;;;;;;;5014899;28;20930;-96
2021/10/31 06:10:11;;;;;;;25.43;23.53;;;;;;;;;;5046118;28;20440;-96
2021/10/31 06:12:39;;;;;;;27.33;25.43;;;;;;;;;;5046354;28;20960;-95
2021/10/31 06:15:08;;;;;;;26.03;24.30;;;;;;;;;;5044605;28;20465;-96
2021/10/31 06:17:35;;;;;;;27.60;24.77;;;;;;;;;;5048345;28;20398;-96
2021/10/31 06:20:03;;;;;;;27.00;25.10;;;;;;;;;;5053146;28;20447;-96
2021/10/31 06:22:32;;;;;;;26.90;24.70;;;;;;;;;;5042154;28;20801;-96
2021/10/31 06:24:59;;;;;;;28.13;25.93;;;;;;;;;;5041339;28;20780;-96
2021/10/31 06:27:27;;;;;;;27.90;25.80;;;;;;;;;;5038827;28;20479;-96
2021/10/31 06:29:54;;;;;;;29.43;27.13;;;;;;;;;;5046066;28;20443;-96
2021/10/31 06:32:22;;;;;;;27.20;25.20;;;;;;;;;;5031212;28;20471;-96
2021/10/31 06:34:49;;;;;;;26.27;24.47;;;;;;;;;;5048173;28;20866;-96
2021/10/31 06:37:17;;;;;;;27.57;25.57;;;;;;;;;;5047169;28;20442;-96
2021/10/31 06:39:46;;;;;;;26.57;24.33;;;;;;;;;;5033616;28;20501;-96
2021/10/31 06:42:14;;;;;;;28.13;26.03;;;;;;;;;;5049545;28;20447;-96
2021/10/31 06:44:41;;;;;;;27.53;25.53;;;;;;;;;;5045856;28;20454;-96
2021/10/31 06:47:09;;;;;;;27.53;25.53;;;;;;;;;;5042890;28;20515;-96
2021/10/31 06:49:38;;;;;;;27.40;25.40;;;;;;;;;;5043148;28;20470;-96
2021/10/31 06:52:06;;;;;;;27.90;25.50;;;;;;;;;;5047793;28;20459;-96
2021/10/31 06:54:33;;;;;;;27.97;25.87;;;;;;;;;;5048180;28;20468;-96
2021/10/31 06:57:02;;;;;;;29.03;26.93;;;;;;;;;;5055469;28;20447;-90
2021/10/31 07:23:50;;;;;;;28.47;26.27;;;;;;;;;;5719751;23;20563;-94
2021/10/31 07:38:02;;;;;;;28.23;26.17;;;;;;;;;;5071259;23;20493;-96
2021/10/31 08:01:31;;;;;;;29.47;27.30;;;;;;;;;;5829059;23;20253;-96
2021/10/31 08:03:59;;;;;;;29.73;27.53;;;;;;;;;;5036850;23;20992;-86
2021/10/31 08:06:27;;;;;;;29.03;26.83;;;;;;;;;;4976400;28;20453;-87
2021/10/31 08:08:54;;;;;;;31.60;29.10;;;;;;;;;;4976894;28;20417;-87
2021/10/31 08:11:22;;;;;;;30.67;28.37;;;;;;;;;;4976364;28;20420;-88
2021/10/31 08:13:49;;;;;;;31.80;29.30;;;;;;;;;;4981822;28;20400;-87
2021/10/31 08:16:16;;;;;;;31.17;28.87;;;;;;;;;;4976808;28;20413;-87
2021/10/31 08:18:45;;;;;;;32.87;30.10;;;;;;;;;;4976681;28;20767;-88
2021/10/31 08:21:13;;;;;;;29.70;27.40;;;;;;;;;;4976531;28;20442;-87
2021/10/31 08:23:40;;;;;;;31.90;29.40;;;;;;;;;;4977165;28;20450;-86
2021/10/31 08:26:08;;;;;;;31.13;28.73;;;;;;;;;;4976538;28;20424;-87
2021/10/31 08:28:38;;;;;;;31.73;29.23;;;;;;;;;;4975913;28;20442;-87
2021/10/31 08:31:06;;;;;;;31.97;29.53;;;;;;;;;;4959304;28;20958;-88
2021/10/31 08:33:37;;;;;;;32.13;29.63;;;;;;;;;;4976569;28;20438;-87
2021/10/31 08:36:07;;;;;;;30.57;28.10;;;;;;;;;;4992677;28;20506;-84
2021/10/31 08:38:41;;;;;;;29.97;27.73;;;;;;;;;;4995650;28;20986;-88
2021/10/31 08:41:09;;;;;;;33.33;30.63;;;;;;;;;;4995225;28;20403;-86
2021/10/31 08:43:36;;;;;;;32.97;30.27;;;;;;;;;;4996547;28;20672;-89
2021/10/31 08:46:04;;;;;;;29.27;27.00;;;;;;;;;;4995040;28;20441;-90
2021/10/31 08:48:34;;;;;;;29.57;27.37;;;;;;;;;;4994796;28;20441;-87
2021/10/31 08:51:01;;;;;;;30.93;28.43;;;;;;;;;;4994205;28;20442;-87
2021/10/31 08:53:30;;;;;;;30.53;28.00;;;;;;;;;;4977696;28;20463;-87
2021/10/31 08:55:59;;;;;;;30.70;28.27;;;;;;;;;;4998307;28;20472;-89
2021/10/31 08:58:26;;;;;;;29.83;27.53;;;;;;;;;;4995990;28;20448;-89
2021/10/31 09:00:54;;;;;;;31.60;29.00;;;;;;;;;;4996267;28;20469;-88
2021/10/31 09:03:22;;;;;;;29.57;27.40;;;;;;;;;;4975349;28;20452;-85
2021/10/31 09:05:50;;;;;;;28.03;25.90;;;;;;;;;;4990387;28;20824;-86
2021/10/31 09:08:17;;;;;;;29.17;26.70;;;;;;;;;;4995021;28;20420;-86
2021/10/31 09:10:46;;;;;;;28.87;26.77;;;;;;;;;;4995124;28;20459;-87
2021/10/31 09:13:14;;;;;;;28.07;25.77;;;;;;;;;;4996903;28;20422;-87
2021/10/31 09:15:41;;;;;;;28.23;26.23;;;;;;;;;;4995998;28;20481;-89
2021/10/31 09:18:09;;;;;;;28.17;26.17;;;;;;;;;;4995561;28;20424;-87
2021/10/31 09:20:37;;;;;;;29.03;27.00;;;;;;;;;;4978592;28;20766;-88
2021/10/31 09:23:05;;;;;;;28.40;26.30;;;;;;;;;;4995651;28;20450;-89
2021/10/31 09:25:33;;;;;;;28.10;26.10;;;;;;;;;;4995505;28;20435;-89
2021/10/31 09:28:09;;;;;;;26.73;24.93;;;;;;;;;;4999901;28;20511;-88
2021/10/31 09:30:39;;;;;;;26.97;25.00;;;;;;;;;;5005829;28;20419;-89
2021/10/31 09:36:13;;;;;;;26.57;24.70;;;;;;;;;;5041278;23;20943;-90
2021/10/31 09:38:40;;;;;;;27.40;25.40;;;;;;;;;;5426379;23;20434;-94
2021/10/31 09:44:18;;;;;;;26.20;24.37;;;;;;;;;;5062701;23;23101;-92
2021/10/31 09:53:16;;;;;;;24.70;23.00;;;;;;;;;;5033633;23;20523;-86
2021/10/31 09:55:43;;;;;;;25.17;23.50;;;;;;;;;;4987344;28;20457;-96
2021/10/31 09:58:18;;;;;;;23.60;22.20;;;;;;;;;;5001297;28;20427;-96
2021/10/31 10:06:16;;;;;;;23.00;21.53;;;;;;;;;;5020100;28;20449;-96
2021/10/31 10:08:58;;;;;;;22.73;21.43;;;;;;;;;;5066901;23;20558;-96
2021/10/31 10:11:25;;;;;;;24.37;22.67;;;;;;;;;;5010960;28;20420;-95
2021/10/31 10:13:53;;;;;;;22.00;20.77;;;;;;;;;;4998525;28;20424;-96
2021/10/31 10:16:25;;;;;;;21.90;20.60;;;;;;;;;;5012986;28;20497;-95
2021/10/31 10:18:59;;;;;;;21.03;19.87;;;;;;;;;;5015299;23;20484;-93
2021/10/31 10:32:20;;;;;;;22.03;20.83;;;;;;;;;;5315814;23;20459;-92
2021/10/31 10:37:26;;;;;;;21.90;20.70;;;;;;;;;;5961175;23;20462;-96
2021/10/31 10:39:54;;;;;;;22.13;20.90;;;;;;;;;;5042321;28;20445;-96
2021/10/31 10:42:23;;;;;;;22.67;21.27;;;;;;;;;;5044014;28;20413;-96
2021/10/31 10:44:51;;;;;;;22.00;20.77;;;;;;;;;;5042177;28;20509;-96
2021/10/31 10:47:21;;;;;;;21.60;20.33;;;;;;;;;;5039930;28;20441;-96
2021/10/31 10:49:50;;;;;;;20.93;19.83;;;;;;;;;;5039885;28;20436;-96
2021/10/31 10:52:23;;;;;;;20.70;19.67;;;;;;;;;;5039487;28;20435;-96
2021/10/31 10:54:53;;;;;;;20.70;19.60;;;;;;;;;;5039696;28;20545;-96
2021/10/31 10:57:21;;;;;;;21.13;20.03;;;;;;;;;;5038100;28;20414;-96
2021/10/31 10:59:53;;;;;;;21.97;20.60;;;;;;;;;;5040925;28;20520;-96
2021/10/31 11:02:22;;;;;;;21.50;19.80;;;;;;;;;;5049822;28;20446;-96
2021/10/31 11:04:53;;;;;;;22.33;21.03;;;;;;;;;;5047181;28;20538;-96
2021/10/31 11:15:59;;;;;;;20.10;19.10;;;;;;;;;;5034022;23;20476;-92
2021/10/31 11:47:21;;;;;;;20.63;19.50;;;;;;;;;;5055921;23;20839;-91
2021/10/31 11:50:00;;;;;;;21.30;20.20;;;;;;;;;;5022594;23;20464;-94
2021/10/31 11:52:47;;;;;;;21.00;19.90;;;;;;;;;;5023284;23;20431;-86
2021/10/31 11:55:33;;;;;;;21.00;19.90;;;;;;;;;;4959037;28;20474;-84
2021/10/31 11:58:10;;;;;;;22.90;21.70;;;;;;;;;;4956771;29;20418;-85
2021/10/31 12:00:49;;;;;;;22.13;20.93;;;;;;;;;;4956297;29;20447;-83
2021/10/31 12:03:34;;;;;;;21.77;20.40;;;;;;;;;;4977314;28;20448;-85
2021/10/31 12:06:25;;;;;;;21.93;20.63;;;;;;;;;;4990200;28;20466;-95
2021/10/31 12:08:53;;;;;;;22.90;21.50;;;;;;;;;;4980797;28;20465;-95
2021/10/31 12:11:21;;;;;;;22.60;21.30;;;;;;;;;;4979605;28;20526;-96
2021/10/31 12:13:51;;;;;;;21.73;20.40;;;;;;;;;;4960922;28;20421;-95
2021/10/31 12:16:18;;;;;;;21.97;20.80;;;;;;;;;;4977007;28;20488;-95
2021/10/31 12:18:47;;;;;;;20.90;19.90;;;;;;;;;;4959385;28;20459;-95
2021/10/31 12:21:26;;;;;;;21.37;20.37;;;;;;;;;;4976698;28;20458;-94
2021/10/31 12:23:55;;;;;;;21.97;20.77;;;;;;;;;;4978158;28;20426;-95
2021/10/31 12:26:24;;;;;;;22.73;21.33;;;;;;;;;;4978071;28;20411;-94
2021/10/31 12:28:52;;;;;;;22.53;21.23;;;;;;;;;;4977896;28;20833;-94
2021/10/31 12:31:30;;;;;;;22.13;20.93;;;;;;;;;;4976708;28;20422;-96
2021/10/31 12:34:11;;;;;;;21.40;20.23;;;;;;;;;;4976454;28;20468;-94
2021/10/31 12:36:41;;;;;;;23.23;21.40;;;;;;;;;;4976035;28;20522;-95
2021/10/31 12:39:28;;;;;;;20.80;19.67;;;;;;;;;;4975523;28;20443;-95
2021/10/31 12:42:10;;;;;;;21.93;20.73;;;;;;;;;;4976159;28;20439;-94
2021/10/31 12:44:38;;;;;;;22.60;21.40;;;;;;;;;;4975821;28;20422;-94
2021/10/31 12:47:07;;;;;;;21.10;20.00;;;;;;;;;;4975513;28;20495;-94
2021/10/31 12:49:35;;;;;;;22.63;21.50;;;;;;;;;;4977763;28;20441;-94
2021/10/31 12:52:21;;;;;;;23.10;21.80;;;;;;;;;;4977982;28;20434;-94
2021/10/31 12:54:56;;;;;;;23.97;22.67;;;;;;;;;;4978588;28;20490;-94
2021/10/31 12:57:23;;;;;;;23.13;21.83;;;;;;;;;;4978436;28;20465;-96
2021/10/31 12:59:54;;;;;;;22.37;21.17;;;;;;;;;;4979217;28;20426;-94
2021/10/31 13:02:25;;;;;;;23.67;22.37;;;;;;;;;;4979631;28;20837;-94
2021/10/31 13:04:56;;;;;;;22.47;21.17;;;;;;;;;;4981762;28;20533;-96
2021/10/31 13:07:38;;;;;;;22.97;21.37;;;;;;;;;;4983730;28;20838;-85
2021/10/31 13:10:06;;;;;;;22.90;21.67;;;;;;;;;;4980382;28;20777;-92
2021/10/31 13:12:38;;;;;;;22.20;20.90;;;;;;;;;;4981254;28;20469;-92
2021/10/31 13:15:09;;;;;;;21.47;20.27;;;;;;;;;;4984206;28;20461;-92
2021/10/31 13:17:39;;;;;;;22.70;21.50;;;;;;;;;;4982418;28;20770;-92
2021/10/31 13:20:17;;;;;;;21.67;20.63;;;;;;;;;;4965764;28;20451;-92
2021/10/31 13:22:47;;;;;;;22.57;21.27;;;;;;;;;;4983044;28;20428;-92
2021/10/31 13:25:15;;;;;;;22.60;21.50;;;;;;;;;;4983844;28;20455;-92
2021/10/31 13:27:44;;;;;;;21.40;20.20;;;;;;;;;;4984668;28;20470;-92
2021/10/31 13:30:13;;;;;;;21.83;20.63;;;;;;;;;;4967197;28;20496;-94
2021/10/31 13:32:41;;;;;;;21.97;20.87;;;;;;;;;;4983632;28;20477;-92
2021/10/31 13:35:09;;;;;;;22.43;21.33;;;;;;;;;;4982953;28;20417;-92
2021/10/31 13:37:41;;;;;;;23.10;21.90;;;;;;;;;;4982493;28;20438;-95
2021/10/31 13:40:14;;;;;;;23.30;22.10;;;;;;;;;;4982166;28;20438;-95
2021/10/31 13:42:42;;;;;;;23.07;21.87;;;;;;;;;;4982755;28;20419;-95
2021/10/31 13:45:11;;;;;;;21.63;20.53;;;;;;;;;;4981396;28;20411;-94
2021/10/31 13:47:40;;;;;;;23.60;22.20;;;;;;;;;;4964244;28;20479;-93
2021/10/31 13:50:09;;;;;;;22.67;21.47;;;;;;;;;;4981528;28;20436;-95
2021/10/31 13:52:38;;;;;;;23.70;21.90;;;;;;;;;;4982185;28;20430;-95
2021/10/31 13:55:07;;;;;;;22.40;21.10;;;;;;;;;;4985687;28;20490;-94
2021/10/31 13:57:38;;;;;;;22.37;21.27;;;;;;;;;;4982105;28;20425;-94
2021/10/31 14:00:12;;;;;;;22.27;21.07;;;;;;;;;;4981827;28;20487;-94
2021/10/31 14:02:41;;;;;;;21.53;20.43;;;;;;;;;;4981461;28;20411;-94
2021/10/31 14:05:10;;;;;;;21.77;20.63;;;;;;;;;;4964734;28;20418;-94
2021/10/31 14:07:38;;;;;;;22.87;21.67;;;;;;;;;;4979775;28;20916;-95
2021/10/31 14:10:06;;;;;;;23.10;21.93;;;;;;;;;;4978356;28;20433;-95
2021/10/31 14:12:35;;;;;;;22.60;21.40;;;;;;;;;;4979531;28;20521;-95
2021/10/31 14:15:05;;;;;;;22.07;20.97;;;;;;;;;;4977406;28;20475;-94
2021/10/31 14:17:33;;;;;;;22.10;21.00;;;;;;;;;;4978707;28;20454;-95
2021/10/31 14:20:01;;;;;;;22.23;21.10;;;;;;;;;;4978745;28;20447;-94
2021/10/31 14:22:30;;;;;;;22.57;21.37;;;;;;;;;;4977850;28;20482;-95
2021/10/31 14:24:59;;;;;;;22.07;20.97;;;;;;;;;;4978543;28;20425;-95
2021/10/31 14:27:28;;;;;;;21.80;20.70;;;;;;;;;;4977586;28;20445;-94
2021/10/31 14:30:12;;;;;;;22.40;21.30;;;;;;;;;;4977733;28;20455;-94
2021/10/31 14:32:47;;;;;;;23.43;22.23;;;;;;;;;;4977509;28;20422;-94
2021/10/31 14:35:14;;;;;;;22.07;20.97;;;;;;;;;;4977525;28;20422;-94
2021/10/31 14:37:42;;;;;;;20.23;19.23;;;;;;;;;;4977756;28;20459;-93
2021/10/31 14:40:24;;;;;;;20.77;19.70;;;;;;;;;;4960295;28;20459;-92
2021/10/31 14:42:52;;;;;;;22.53;21.13;;;;;;;;;;4977638;28;20454;-93
2021/10/31 14:45:30;;;;;;;21.43;20.33;;;;;;;;;;4977111;28;20428;-93
2021/10/31 14:47:58;;;;;;;19.90;18.90;;;;;;;;;;4977703;28;20482;-93
2021/10/31 14:50:25;;;;;;;21.07;20.07;;;;;;;;;;4977363;28;20458;-93
2021/10/31 14:52:53;;;;;;;19.50;18.60;;;;;;;;;;4976877;28;20483;-94
2021/10/31 14:55:20;;;;;;;20.43;19.23;;;;;;;;;;4959768;28;20427;-95
2021/10/31 14:57:53;;;;;;;21.00;19.77;;;;;;;;;;4976978;28;20448;-95
2021/10/31 15:00:24;;;;;;;19.93;18.83;;;;;;;;;;4977315;28;20462;-94
2021/10/31 15:02:55;;;;;;;19.87;18.77;;;;;;;;;;4977428;28;20491;-94
2021/10/31 15:05:23;;;;;;;20.67;19.57;;;;;;;;;;4977106;28;20900;-94
2021/10/31 15:07:50;;;;;;;20.57;19.57;;;;;;;;;;4959864;28;20492;-95
2021/10/31 15:10:17;;;;;;;20.33;19.33;;;;;;;;;;4966108;28;20483;-88
2021/10/31 15:12:45;;;;;;;20.40;19.40;;;;;;;;;;4957605;29;20464;-88
2021/10/31 15:15:12;;;;;;;20.37;19.17;;;;;;;;;;4956845;29;20445;-87
2021/10/31 15:17:45;;;;;;;21.73;20.63;;;;;;;;;;4956474;29;20497;-87
2021/10/31 15:20:14;;;;;;;21.20;20.20;;;;;;;;;;4940726;29;20458;-94
2021/10/31 15:22:43;;;;;;;20.60;19.60;;;;;;;;;;4957406;29;20493;-93
2021/10/31 15:25:11;;;;;;;21.60;20.40;;;;;;;;;;4956763;28;20515;-95
2021/10/31 15:27:38;;;;;;;20.50;19.07;;;;;;;;;;4957204;29;20818;-95
2021/10/31 15:30:06;;;;;;;20.90;19.70;;;;;;;;;;4956942;29;20478;-94
2021/10/31 15:32:35;;;;;;;20.57;19.47;;;;;;;;;;4957241;29;21025;-94
2021/10/31 15:35:02;;;;;;;19.77;18.77;;;;;;;;;;4957195;29;20806;-92
2021/10/31 15:37:31;;;;;;;20.10;19.00;;;;;;;;;;4956806;29;20490;-94
2021/10/31 15:39:59;;;;;;;19.90;18.80;;;;;;;;;;4956876;28;20891;-94
2021/10/31 15:42:28;;;;;;;21.40;20.10;;;;;;;;;;4956830;29;20484;-93
2021/10/31 15:44:55;;;;;;;21.27;20.10;;;;;;;;;;4956653;29;20509;-94
2021/10/31 15:47:22;;;;;;;22.57;21.20;;;;;;;;;;4957798;29;20865;-95
2021/10/31 15:55:51;;;;;;;19.60;18.60;;;;;;;;;;5277994;23;20528;-88
2021/10/31 15:58:25;;;;;;;18.27;17.37;;;;;;;;;;4995103;28;20486;-95
2021/10/31 16:00:52;;;;;;;19.20;18.30;;;;;;;;;;4995097;28;20453;-95
2021/10/31 16:03:22;;;;;;;19.30;18.40;;;;;;;;;;4995246;28;20428;-96
2021/10/31 16:05:49;;;;;;;18.80;17.90;;;;;;;;;;4995401;28;20461;-95
2021/10/31 16:08:17;;;;;;;19.10;18.00;;;;;;;;;;4995166;28;20443;-95
2021/10/31 16:10:44;;;;;;;19.37;18.47;;;;;;;;;;4995443;28;20447;-95
2021/10/31 16:13:13;;;;;;;18.17;17.37;;;;;;;;;;4995326;28;20925;-95
2021/10/31 16:15:41;;;;;;;18.87;18.07;;;;;;;;;;4995026;28;20803;-95
2021/10/31 16:18:10;;;;;;;19.70;18.80;;;;;;;;;;4994857;28;20490;-95
2021/10/31 16:20:38;;;;;;;19.37;18.47;;;;;;;;;;4994205;28;20513;-95
2021/10/31 16:23:05;;;;;;;19.40;18.50;;;;;;;;;;4996221;28;20491;-95
2021/10/31 16:25:33;;;;;;;19.17;18.37;;;;;;;;;;4995699;28;20802;-95
2021/10/31 16:28:00;;;;;;;19.47;18.47;;;;;;;;;;4994465;28;20444;-96
2021/10/31 16:30:29;;;;;;;18.93;18.03;;;;;;;;;;4995962;28;20438;-96
2021/10/31 16:33:01;;;;;;;18.90;18.00;;;;;;;;;;4995984;28;20485;-94
2021/10/31 16:35:33;;;;;;;19.33;18.33;;;;;;;;;;4995536;28;20435;-94
2021/10/31 16:38:01;;;;;;;19.10;18.20;;;;;;;;;;4994665;28;20464;-95
2021/10/31 16:40:33;;;;;;;19.50;18.60;;;;;;;;;;4995292;28;20805;-96
2021/10/31 16:43:04;;;;;;;18.70;17.90;;;;;;;;;;4995274;28;20425;-96
2021/10/31 16:45:33;;;;;;;19.80;18.90;;;;;;;;;;4996157;28;20863;-95
2021/10/31 16:48:00;;;;;;;20.53;19.53;;;;;;;;;;4994536;28;20421;-94
2021/10/31 16:50:28;;;;;;;18.50;17.60;;;;;;;;;;4977453;28;20461;-94
2021/10/31 16:52:57;;;;;;;18.93;18.10;;;;;;;;;;4995006;28;20968;-94
2021/10/31 16:55:25;;;;;;;19.07;18.10;;;;;;;;;;4994451;28;20466;-94
2021/10/31 16:57:52;;;;;;;18.50;17.33;;;;;;;;;;4994175;28;20453;-92
2021/10/31 17:00:21;;;;;;;19.87;18.67;;;;;;;;;;4995110;28;20417;-94
2021/10/31 17:02:50;;;;;;;19.77;18.87;;;;;;;;;;4995392;28;20905;-93
2021/10/31 17:05:17;;;;;;;18.80;17.90;;;;;;;;;;4976842;28;20532;-92
2021/10/31 17:07:51;;;;;;;19.97;18.97;;;;;;;;;;4994613;28;20449;-92
2021/10/31 17:10:29;;;;;;;19.00;18.20;;;;;;;;;;4992940;28;20433;-91
2021/10/31 17:12:57;;;;;;;18.83;17.93;;;;;;;;;;4994242;28;20413;-92
2021/10/31 17:15:24;;;;;;;18.60;17.73;;;;;;;;;;4994199;28;20453;-91
2021/10/31 17:17:53;;;;;;;18.23;17.43;;;;;;;;;;4994173;28;20509;-90
2021/10/31 17:20:21;;;;;;;17.93;17.13;;;;;;;;;;4994415;28;20440;-90
2021/10/31 17:22:48;;;;;;;18.73;17.83;;;;;;;;;;4994307;28;20810;-88
2021/10/31 17:25:17;;;;;;;18.50;17.70;;;;;;;;;;4994288;28;20768;-87
2021/10/31 17:27:45;;;;;;;18.13;17.33;;;;;;;;;;4993872;28;20803;-91
2021/10/31 17:30:12;;;;;;;18.40;17.40;;;;;;;;;;4994250;28;20444;-94
2021/10/31 17:32:40;;;;;;;18.20;17.30;;;;;;;;;;4996744;28;20439;-96
2021/10/31 17:35:10;;;;;;;18.00;17.20;;;;;;;;;;4977828;28;20520;-93
2021/10/31 17:37:37;;;;;;;18.77;17.87;;;;;;;;;;4996359;28;20472;-93
2021/10/31 17:40:05;;;;;;;18.50;17.60;;;;;;;;;;4999767;28;20475;-95
2021/10/31 17:42:33;;;;;;;18.20;17.30;;;;;;;;;;4998371;28;20437;-93
2021/10/31 17:45:02;;;;;;;18.60;17.80;;;;;;;;;;4994689;28;20436;-95
2021/10/31 17:47:30;;;;;;;19.40;18.30;;;;;;;;;;4957847;28;20448;-93
2021/10/31 17:50:03;;;;;;;19.93;18.70;;;;;;;;;;4945599;28;20489;-93
2021/10/31 17:52:33;;;;;;;19.50;18.60;;;;;;;;;;4964375;28;20448;-92
2021/10/31 17:55:01;;;;;;;19.20;18.30;;;;;;;;;;4966169;28;20478;-93
2021/10/31 17:57:29;;;;;;;19.43;18.43;;;;;;;;;;4964463;28;20501;-87
2021/10/31 17:59:56;;;;;;;19.60;18.50;;;;;;;;;;4964225;28;20450;-91
2021/10/31 18:02:23;;;;;;;18.93;18.03;;;;;;;;;;4964648;28;20437;-91
2021/10/31 18:04:51;;;;;;;19.50;18.27;;;;;;;;;;4964003;28;20435;-92
2021/10/31 18:07:19;;;;;;;18.47;17.57;;;;;;;;;;4970494;28;20472;-96
2021/10/31 18:09:48;;;;;;;17.90;17.10;;;;;;;;;;4969719;28;20445;-96